Terminal Aerodrome Forecast
Issued by NWS

Home | Current Version | Previous Version | Text Only | Print | Product List | Glossary On
Versions: 1 2 3 4 5 6 7 8 9 10 11 12 13 14 15
000
FTAK31 PAJN 180829 AAA
TAFAKT
TAF AMD
PAKT 180829Z 1808/1906 17003KT P6SM VCSH FEW005 BKN035 OVC050
      TEMPO 1808/1810 VRB03KT 5SM BR BKN005
     FM181000 13007KT P6SM VCSH SCT005 OVC050
     FM181600 14005KT 6SM -SHRASN BKN030 OVC040
     FM182100 14008KT P6SM -SHRA BKN035 OVC045
      AMD LTD TO CLD VIS AND WIND TIL 181500=

USA.gov is the U.S. government's official web portal to all federal, state and local government web resources and services.